Česky Dansk Deutsch English Español Suomi Français Magyar Italiano Nederlands norsk Polski Português svenska Türkçe

 

Het Weer

Bauru (Brazilië)

04:00, 12 augustus 2016 (GMT)

NWNNE
WE
SWSSE
Home            
Bauru Sao Carlos Pirassununga Leite Lopes / Ribeir Campinas Aeroporto Presidente Prudente Londrina Aeroporto Pocos De Caldas Marte Civ / Mil Sao Paulo/Congonhas Aeroporto Guarulhos Civ / Mil Uberaba Maringa Santos Aeroporto Sao Jose Dos Campo Curitiba Curitiba Aeroporto Paranagua Uberlandia Guaratingueta Resende Rio De Janeiro-Santa Cruz Ab Barbacena

Om een weerknop op uw website of weblog te plaatsen, copieer onderstaande code en plak die in uw pagina. In het eerste vakje staat HTML-code, in het tweede vakje UBB-code.


Add to Google

Details

Wind speed:4 bf, 11 kn, 5.7 m/s, 12.7 miles/h, 20.4 km/h
Wind direction:ESE, 110°
Visibility:Greater than 10000 m, 10 km, 32800 ft, 6.2 miles
Clouds:CAVOC
Temperature:12°C, 54°F
Dew-point:9°C, 48°F
Atmospheric pressure:1022 hPa, 766.6 mmHg, 30.18 inHg, 1.009 atm
Relative humidity:81.9 %
METAR:SBBU 120400Z 11011KT CAVOK 12/09 Q1022

Snelkoppelingen

Actuele weersinformatie van de hele wereld. Voeg locaties toe met het plus (+) symbool. Deze snelkoppelingen kunnen worden toegevoegd aan Google.

Lid van de Technetium groep

website free tracking
StatCounter NetStat W3C Validator

24-10-2020 01:49:56
astro.technetium.be money.technetium.be phote.technetium.be tafeltennistafel.technetium.be www.ligfiets.net